Time;durP1;ratioP1;P1;durP2;ratioP2;P2;SDS_P1;SDS_P2;PMS_P1;PMS_P2;Temp;Humidity;BMP_temperature;BMP_pressure;BME280_temperature;BME280_humidity;BME280_pressure;Samples;Min_cycle;Max_cycle;Signal;HPM_P1;HPM_P2
2023/06/04 00:01:29;;;;;;;13.93;6.60;;;;;;;14.10;100.00;94485.63;5040111;28;20484;-83
2023/06/04 00:03:54;;;;;;;11.32;6.38;;;;;;;14.06;100.00;94482.78;5037533;28;20028;-83
2023/06/04 00:06:20;;;;;;;13.73;7.00;;;;;;;14.08;100.00;94493.03;5036917;28;20043;-83
2023/06/04 00:08:45;;;;;;;14.75;6.80;;;;;;;13.89;100.00;94487.75;5037444;28;20119;-83
2023/06/04 00:11:30;;;;;;;14.13;6.55;;;;;;;13.65;100.00;94478.06;5037518;28;20037;-83
2023/06/04 00:13:56;;;;;;;10.93;7.07;;;;;;;13.75;100.00;94480.56;5055228;28;20040;-83
2023/06/04 00:16:21;;;;;;;10.52;6.82;;;;;;;13.81;100.00;94489.19;5036887;28;20028;-83
2023/06/04 00:18:46;;;;;;;12.63;7.00;;;;;;;13.77;100.00;94480.28;5021136;28;20029;-83
2023/06/04 00:21:12;;;;;;;13.77;6.65;;;;;;;13.75;100.00;94482.41;5037441;28;20075;-83
2023/06/04 00:23:37;;;;;;;12.05;6.65;;;;;;;13.65;100.00;94480.69;5037309;28;20029;-83
2023/06/04 00:26:03;;;;;;;17.90;6.75;;;;;;;13.75;100.00;94482.41;5054559;28;20082;-83
2023/06/04 00:28:29;;;;;;;17.67;6.63;;;;;;;13.76;100.00;94482.13;5037628;28;20158;-83
2023/06/04 00:33:39;;;;;;;12.43;7.65;;;;;;;13.48;100.00;94484.59;5039862;28;20083;-83
2023/06/04 00:36:05;;;;;;;12.85;7.25;;;;;;;13.47;100.00;94485.66;5020450;28;20025;-83
2023/06/04 00:38:30;;;;;;;12.00;6.82;;;;;;;13.55;100.00;94479.75;5037130;28;20029;-83
2023/06/04 00:41:14;;;;;;;13.43;6.55;;;;;;;13.65;100.00;94485.97;5037072;28;20090;-83
2023/06/04 00:43:39;;;;;;;14.65;6.93;;;;;;;13.61;100.00;94487.59;5037132;28;20411;-83
2023/06/04 00:46:25;;;;;;;13.85;7.20;;;;;;;13.63;100.00;94485.47;5037354;28;20132;-83
2023/06/04 00:48:51;;;;;;;11.90;6.45;;;;;;;13.67;100.00;94489.88;5074821;28;20083;-83
2023/06/04 00:51:16;;;;;;;10.32;6.70;;;;;;;13.71;100.00;94482.22;5056905;28;20059;-83
2023/06/04 00:53:42;;;;;;;12.38;7.30;;;;;;;13.39;100.00;94486.25;5057015;28;20713;-83
2023/06/04 00:56:07;;;;;;;12.70;7.43;;;;;;;13.15;100.00;94482.56;5056511;28;20032;-83
2023/06/04 01:01:47;;;;;;;19.52;7.68;;;;;;;13.28;100.00;94485.59;5063430;28;20035;-83
2023/06/04 01:04:17;;;;;;;11.43;7.13;;;;;;;13.26;100.00;94482.47;5078645;28;20331;-83
2023/06/04 01:06:50;;;;;;;19.17;8.10;;;;;;;12.96;100.00;94484.38;5060181;28;20032;-83
2023/06/04 01:09:34;;;;;;;11.75;7.30;;;;;;;13.08;100.00;94489.22;5060688;28;20454;-83
2023/06/04 01:12:01;;;;;;;10.95;6.55;;;;;;;13.17;100.00;94486.75;5060796;28;20035;-83
2023/06/04 01:14:27;;;;;;;10.52;6.40;;;;;;;13.14;100.00;94485.50;5078357;28;20032;-83
2023/06/04 01:20:27;;;;;;;11.23;7.40;;;;;;;13.24;100.00;94479.34;5078383;28;20040;-83
2023/06/04 01:23:21;;;;;;;18.43;6.47;;;;;;;13.24;100.00;94474.06;5078315;28;20035;-83
2023/06/04 01:26:06;;;;;;;12.77;7.45;;;;;;;13.26;100.00;94477.19;5077670;28;20127;-83
2023/06/04 01:28:33;;;;;;;17.42;7.15;;;;;;;13.27;100.00;94470.88;5060456;28;20123;-83
2023/06/04 01:31:01;;;;;;;13.43;6.95;;;;;;;13.22;100.00;94473.56;5060173;28;20028;-83
2023/06/04 01:33:27;;;;;;;12.52;6.93;;;;;;;13.14;100.00;94467.84;5043868;28;20083;-83
2023/06/04 01:35:52;;;;;;;11.98;6.75;;;;;;;13.08;100.00;94470.81;5059627;28;20025;-83
2023/06/04 01:38:18;;;;;;;13.90;6.45;;;;;;;13.25;100.00;94475.63;5043436;28;20025;-83
2023/06/04 01:40:43;;;;;;;13.50;6.97;;;;;;;13.23;100.00;94475.13;5060267;28;20028;-83
2023/06/04 01:43:09;;;;;;;13.00;6.97;;;;;;;13.23;100.00;94478.53;5043443;28;20452;-83
2023/06/04 01:45:35;;;;;;;14.75;6.05;;;;;;;13.21;100.00;94480.66;5059484;28;20029;-83
2023/06/04 01:48:02;;;;;;;9.88;6.10;;;;;;;13.23;100.00;94475.13;5043656;28;20410;-83
2023/06/04 01:50:46;;;;;;;13.45;6.35;;;;;;;13.14;100.00;94481.00;5043035;28;20028;-83
2023/06/04 01:53:12;;;;;;;11.57;6.40;;;;;;;13.13;100.00;94471.53;5060217;28;20036;-83
2023/06/04 01:55:37;;;;;;;11.93;6.65;;;;;;;13.02;100.00;94467.47;5059297;28;20157;-83
2023/06/04 01:58:03;;;;;;;10.43;6.05;;;;;;;13.08;100.00;94470.81;5059630;28;20032;-83
2023/06/04 02:00:28;;;;;;;11.00;5.93;;;;;;;13.15;100.00;94471.28;5059489;28;20441;-83
2023/06/04 02:02:55;;;;;;;11.15;5.07;;;;;;;13.35;100.00;94469.47;5059482;28;20123;-83
2023/06/04 02:05:21;;;;;;;8.00;5.05;;;;;;;13.63;100.00;94470.47;5042649;28;20036;-83
2023/06/04 02:07:47;;;;;;;9.02;4.70;;;;;;;13.73;100.00;94471.38;5059330;28;20343;-82
2023/06/04 02:10:15;;;;;;;9.50;5.47;;;;;;;13.89;100.00;94478.00;5043076;28;20039;-83
2023/06/04 02:18:22;;;;;;;8.50;4.30;;;;;;;13.78;100.00;94468.69;5061729;28;20085;-83
2023/06/04 02:20:48;;;;;;;9.68;5.20;;;;;;;13.79;100.00;94459.72;5059401;28;20032;-83
2023/06/04 02:26:17;;;;;;;13.10;4.93;;;;;;;13.65;100.00;94457.81;5076524;28;20035;-83
2023/06/04 02:28:42;;;;;;;8.65;4.80;;;;;;;13.71;100.00;94456.66;5042429;28;20028;-82
2023/06/04 02:31:26;;;;;;;9.80;5.53;;;;;;;13.66;100.00;94461.19;5042581;28;20028;-83
2023/06/04 02:33:52;;;;;;;9.02;4.88;;;;;;;13.54;100.00;94453.72;5076860;28;20089;-83
2023/06/04 02:36:18;;;;;;;8.93;5.18;;;;;;;13.50;100.00;94450.09;5058559;28;20024;-82
2023/06/04 02:38:44;;;;;;;8.00;4.78;;;;;;;13.35;100.00;94458.94;5054067;28;20036;-83
2023/06/04 02:41:09;;;;;;;8.35;5.47;;;;;;;13.42;100.00;94460.16;5038782;28;20507;-83
2023/06/04 02:43:36;;;;;;;11.70;6.15;;;;;;;13.34;100.00;94450.28;5033498;28;20036;-83
2023/06/04 02:46:01;;;;;;;10.68;4.85;;;;;;;13.27;100.00;94455.09;5068369;28;20040;-82
2023/06/04 02:48:27;;;;;;;12.52;5.70;;;;;;;12.97;100.00;94454.38;5026952;28;20035;-83
2023/06/04 02:50:52;;;;;;;10.73;5.47;;;;;;;12.98;100.00;94455.94;5038415;28;20453;-83
2023/06/04 02:53:36;;;;;;;11.52;5.57;;;;;;;12.91;100.00;94458.91;5056202;28;20044;-82
2023/06/04 02:56:21;;;;;;;8.45;5.07;;;;;;;12.73;100.00;94466.44;5037991;28;20039;-83
2023/06/04 02:59:09;;;;;;;12.82;5.40;;;;;;;12.72;100.00;94469.34;5038383;28;20082;-83
2023/06/04 03:01:34;;;;;;;16.90;5.82;;;;;;;12.76;100.00;94464.31;5038624;28;20037;-83
2023/06/04 03:04:20;;;;;;;12.98;5.25;;;;;;;12.62;100.00;94469.44;5021362;28;20039;-83
2023/06/04 03:06:46;;;;;;;8.35;5.53;;;;;;;12.67;100.00;94458.88;5075031;28;20469;-83
2023/06/04 03:09:11;;;;;;;9.82;5.22;;;;;;;12.84;100.00;94471.59;5057583;28;20052;-82
2023/06/04 03:14:32;;;;;;;11.88;5.00;;;;;;;13.07;100.00;94477.16;5075283;28;20105;-82
2023/06/04 03:17:07;;;;;;;9.20;5.05;;;;;;;13.15;100.00;94466.03;5057201;28;20035;-83
2023/06/04 03:22:18;;;;;;;12.82;5.07;;;;;;;13.15;100.00;94468.66;5059584;28;20055;-82
2023/06/04 03:24:44;;;;;;;8.88;5.20;;;;;;;13.12;100.00;94472.63;5057380;28;20036;-82
2023/06/04 03:27:10;;;;;;;8.05;4.90;;;;;;;13.11;100.00;94470.25;5040485;28;20035;-82
2023/06/04 03:29:36;;;;;;;7.68;5.00;;;;;;;12.99;100.00;94470.66;5041045;28;20409;-83
2023/06/04 03:32:21;;;;;;;15.55;4.88;;;;;;;12.83;100.00;94464.75;5057607;28;20358;-83
2023/06/04 03:34:46;;;;;;;11.43;5.00;;;;;;;12.77;100.00;94466.69;5057294;28;20093;-83
2023/06/04 03:37:11;;;;;;;11.90;4.90;;;;;;;12.82;100.00;94473.72;5075089;28;20028;-83
2023/06/04 03:39:37;;;;;;;12.15;5.20;;;;;;;12.89;100.00;94466.28;5057585;28;20046;-83
2023/06/04 03:42:02;;;;;;;7.50;4.75;;;;;;;13.02;100.00;94462.19;5075281;28;20028;-83
2023/06/04 03:44:28;;;;;;;8.13;4.90;;;;;;;13.15;100.00;94458.91;5040966;28;20029;-83
2023/06/04 03:46:54;;;;;;;7.22;4.82;;;;;;;13.33;100.00;94464.47;5056798;28;20710;-83
2023/06/04 03:49:19;;;;;;;8.10;4.40;;;;;;;13.35;100.00;94461.56;5057054;28;20028;-82
2023/06/04 03:52:03;;;;;;;8.13;4.93;;;;;;;13.07;100.00;94461.38;5075263;28;20028;-82
2023/06/04 03:57:35;;;;;;;7.30;4.80;;;;;;;13.22;100.00;94463.81;5059357;28;20039;-83
2023/06/04 04:00:01;;;;;;;9.00;5.40;;;;;;;13.27;100.00;94462.97;5074925;28;20036;-82
2023/06/04 04:02:26;;;;;;;8.35;5.50;;;;;;;13.00;100.00;94456.44;5040739;28;20365;-83
2023/06/04 04:05:11;;;;;;;10.57;4.93;;;;;;;12.91;100.00;94460.72;5057185;28;20035;-82
2023/06/04 04:07:36;;;;;;;8.20;5.15;;;;;;;13.07;100.00;94458.72;5056638;28;20075;-83
2023/06/04 04:10:20;;;;;;;10.23;4.68;;;;;;;13.33;100.00;94459.22;5039284;28;20105;-83
2023/06/04 04:12:45;;;;;;;10.95;5.03;;;;;;;13.54;100.00;94459.75;5070280;28;20043;-82
2023/06/04 04:15:11;;;;;;;14.80;5.35;;;;;;;13.66;100.00;94458.56;5043422;28;20438;-82
2023/06/04 04:17:55;;;;;;;11.55;4.95;;;;;;;13.61;100.00;94467.31;5070715;28;20021;-83
2023/06/04 04:20:39;;;;;;;7.95;4.78;;;;;;;13.93;100.00;94467.69;5074949;28;20029;-82
2023/06/04 04:23:06;;;;;;;10.88;4.88;;;;;;;14.09;100.00;94471.66;5074937;28;20025;-83
2023/06/04 04:25:32;;;;;;;7.28;4.38;;;;;;;13.92;100.00;94466.13;5074245;28;20031;-82
2023/06/04 04:28:00;;;;;;;7.30;4.50;;;;;;;13.98;100.00;94468.41;5056970;28;20073;-82
2023/06/04 04:30:25;;;;;;;8.93;4.82;;;;;;;13.97;100.00;94469.47;5057245;28;20020;-82
2023/06/04 04:32:51;;;;;;;8.48;4.53;;;;;;;14.01;100.00;94469.69;5057471;28;20027;-82
2023/06/04 04:38:04;;;;;;;10.48;4.93;;;;;;;14.24;100.00;94469.84;5058660;28;20082;-83
2023/06/04 04:40:30;;;;;;;11.10;4.53;;;;;;;14.27;100.00;94472.72;5041059;28;20347;-83
2023/06/04 04:42:56;;;;;;;10.32;4.43;;;;;;;14.36;100.00;94470.19;5024271;28;20037;-83
2023/06/04 04:45:22;;;;;;;8.25;4.68;;;;;;;14.48;100.00;94471.59;5040078;28;20033;-82
2023/06/04 04:48:06;;;;;;;7.50;4.75;;;;;;;14.51;100.00;94476.28;5058389;28;20063;-83
2023/06/04 04:50:31;;;;;;;8.00;4.50;;;;;;;14.55;100.00;94485.97;5040742;28;20032;-83
2023/06/04 04:52:58;;;;;;;7.43;4.63;;;;;;;14.15;100.00;94480.25;5058446;28;20025;-83
2023/06/04 04:55:42;;;;;;;9.27;5.07;;;;;;;14.06;100.00;94474.06;5023835;28;20025;-82
2023/06/04 04:58:07;;;;;;;8.60;4.82;;;;;;;14.16;100.00;94481.84;5058394;28;20032;-83
2023/06/04 05:03:36;;;;;;;9.77;5.82;;;;;;;14.10;100.00;94489.03;5042871;28;20027;-82
2023/06/04 05:06:21;;;;;;;8.90;4.82;;;;;;;14.33;100.00;94486.59;5039442;28;20067;-82
2023/06/04 05:09:07;;;;;;;10.27;4.72;;;;;;;14.29;100.00;94480.34;5040590;28;20029;-83
2023/06/04 05:11:51;;;;;;;7.82;5.25;;;;;;;14.50;100.00;94480.00;5040446;28;20090;-83
2023/06/04 05:14:28;;;;;;;9.00;5.15;;;;;;;14.67;100.00;94480.22;5040228;28;20074;-82
2023/06/04 05:16:56;;;;;;;8.10;4.85;;;;;;;14.75;100.00;94478.81;5057741;28;20021;-83
2023/06/04 05:19:22;;;;;;;7.30;4.93;;;;;;;14.86;100.00;94489.97;5040271;28;20021;-83
2023/06/04 05:21:50;;;;;;;7.65;4.93;;;;;;;15.07;100.00;94482.47;5023767;28;20028;-83
2023/06/04 05:24:35;;;;;;;9.07;4.70;;;;;;;15.21;100.00;94497.53;5039795;28;20068;-83
2023/06/04 05:27:00;;;;;;;12.75;4.85;;;;;;;15.32;100.00;94487.56;5039438;28;20033;-83
2023/06/04 05:29:25;;;;;;;8.90;4.85;;;;;;;15.26;100.00;94492.16;5057449;28;20091;-82
2023/06/04 05:31:51;;;;;;;9.23;5.28;;;;;;;15.11;100.00;94493.22;5023499;28;20025;-83
2023/06/04 05:34:16;;;;;;;7.53;4.97;;;;;;;15.19;100.00;94492.53;5039781;28;20033;-83
2023/06/04 05:39:26;;;;;;;7.75;4.80;;;;;;;15.67;100.00;94503.75;5057468;28;20484;-83
2023/06/04 05:41:51;;;;;;;8.02;5.00;;;;;;;15.81;100.00;94498.47;5057274;28;20025;-83
2023/06/04 05:44:35;;;;;;;10.82;4.97;;;;;;;16.17;100.00;94489.00;5022822;28;20017;-83
2023/06/04 05:47:01;;;;;;;7.63;4.75;;;;;;;16.36;100.00;94491.47;5056984;28;20119;-83
2023/06/04 05:49:26;;;;;;;7.70;4.78;;;;;;;16.52;100.00;94497.94;5022523;28;20032;-83
2023/06/04 05:51:52;;;;;;;9.95;4.85;;;;;;;16.60;100.00;94498.28;5039201;28;20350;-83
2023/06/04 05:54:17;;;;;;;8.38;5.03;;;;;;;16.68;100.00;94498.34;5039133;28;20028;-83
2023/06/04 05:56:43;;;;;;;8.57;5.20;;;;;;;16.25;100.00;94501.47;5043361;28;20376;-83
2023/06/04 05:59:08;;;;;;;9.23;5.00;;;;;;;16.27;100.00;94495.91;5059442;28;20042;-83
2023/06/04 06:01:34;;;;;;;7.50;5.07;;;;;;;16.57;100.00;94506.84;5059182;28;20086;-83
2023/06/04 06:04:00;;;;;;;9.00;5.40;;;;;;;16.58;100.00;94500.47;5059111;28;20064;-83
2023/06/04 06:06:28;;;;;;;9.55;5.20;;;;;;;16.66;100.00;94503.16;5058638;28;20063;-83
2023/06/04 06:08:54;;;;;;;8.50;4.90;;;;;;;16.75;100.00;94505.84;5042995;28;20052;-83
2023/06/04 06:11:21;;;;;;;7.82;4.95;;;;;;;16.95;100.00;94501.91;5047897;28;20032;-83
2023/06/04 06:16:32;;;;;;;12.48;5.57;;;;;;;17.26;100.00;94518.09;5041462;28;20151;-84
2023/06/04 06:22:00;;;;;;;8.00;5.05;;;;;;;18.03;100.00;94523.94;5041851;28;20091;-83
2023/06/04 06:24:25;;;;;;;7.68;4.78;;;;;;;17.95;100.00;94525.47;5039057;28;20498;-84
2023/06/04 06:27:10;;;;;;;11.05;5.15;;;;;;;18.58;100.00;94526.28;5038446;28;20120;-83
2023/06/04 06:29:36;;;;;;;12.88;4.88;;;;;;;18.59;100.00;94519.88;5041083;28;20029;-83
2023/06/04 06:32:02;;;;;;;11.15;4.60;;;;;;;19.00;100.00;94531.84;5031872;28;20028;-83
2023/06/04 06:34:28;;;;;;;6.00;4.15;;;;;;;19.17;100.00;94536.34;5041876;28;20093;-83
2023/06/04 06:36:53;;;;;;;8.20;4.75;;;;;;;19.02;100.00;94540.28;5041943;28;20025;-83
2023/06/04 06:39:18;;;;;;;9.85;4.97;;;;;;;18.85;100.00;94541.06;5058678;28;20040;-83
2023/06/04 06:42:03;;;;;;;7.00;4.35;;;;;;;18.77;100.00;94541.88;5076508;28;20024;-83
2023/06/04 06:44:29;;;;;;;7.15;4.70;;;;;;;18.28;100.00;94545.47;5059066;28;20025;-84
2023/06/04 06:46:54;;;;;;;7.72;4.30;;;;;;;18.32;100.00;94549.06;5058118;28;20327;-84
2023/06/04 06:49:20;;;;;;;7.13;4.55;;;;;;;18.34;100.00;94548.75;5058551;28;20031;-84
2023/06/04 06:57:33;;;;;;;9.73;4.53;;;;;;;19.09;100.00;94565.56;5060491;28;20031;-83
2023/06/04 06:59:58;;;;;;;5.93;4.03;;;;;;;19.12;100.00;94570.25;5058190;28;20341;-83
2023/06/04 07:02:43;;;;;;;10.98;4.80;;;;;;;19.20;100.00;94564.91;5057891;28;20033;-83
2023/06/04 07:05:08;;;;;;;7.53;4.40;;;;;;;18.90;100.00;94572.75;5054088;28;20032;-83
2023/06/04 07:07:34;;;;;;;6.65;4.22;;;;;;;17.57;100.00;94575.53;5050604;28;20043;-83
2023/06/04 07:09:59;;;;;;;13.05;5.30;;;;;;;17.53;100.00;94575.41;5058222;28;20058;-84
2023/06/04 07:12:44;;;;;;;9.95;4.70;;;;;;;18.45;100.00;94576.53;5058088;28;20029;-83
2023/06/04 07:15:09;;;;;;;10.82;5.28;;;;;;;18.20;100.00;94568.22;5058008;28;20052;-84
2023/06/04 07:17:35;;;;;;;14.30;4.80;;;;;;;18.29;100.00;94565.63;5057611;28;20108;-85
2023/06/04 07:20:00;;;;;;;9.82;5.07;;;;;;;18.68;100.00;94562.31;5041852;28;20030;-83
2023/06/04 07:22:45;;;;;;;8.15;4.88;;;;;;;18.74;100.00;94564.50;5058067;28;20052;-83
2023/06/04 07:25:11;;;;;;;9.82;5.38;;;;;;;18.77;100.00;94571.06;5057959;28;20058;-84
2023/06/04 07:27:36;;;;;;;12.95;4.85;;;;;;;19.21;100.00;94565.66;5057479;28;20430;-83
2023/06/04 07:30:02;;;;;;;11.05;5.65;;;;;;;19.19;100.00;94567.88;5041722;28;20025;-83
2023/06/04 07:32:27;;;;;;;11.63;5.68;;;;;;;19.16;100.00;94571.97;5057927;28;20048;-84
2023/06/04 07:34:53;;;;;;;10.07;4.95;;;;;;;19.57;100.00;94572.44;5057753;28;20031;-84
2023/06/04 07:37:18;;;;;;;9.50;5.13;;;;;;;19.55;100.00;94571.97;5041087;28;20396;-84
2023/06/04 07:39:43;;;;;;;7.57;4.60;;;;;;;19.81;100.00;94571.06;5058016;28;20024;-85
2023/06/04 07:42:09;;;;;;;11.73;5.80;;;;;;;19.83;100.00;94568.88;5043250;28;20025;-84
2023/06/04 07:47:30;;;;;;;8.02;5.57;;;;;;;19.60;100.00;94571.78;5040031;28;20036;-88
2023/06/04 07:50:26;;;;;;;14.00;5.25;;;;;;;19.89;100.00;94572.88;5037978;28;20079;-88
2023/06/04 07:53:10;;;;;;;9.65;5.22;;;;;;;20.31;100.00;94571.41;5038064;28;20175;-92
2023/06/04 07:55:39;;;;;;;10.70;4.97;;;;;;;20.17;100.00;94572.44;5021220;28;20029;-90
2023/06/04 07:58:26;;;;;;;8.73;5.07;;;;;;;19.93;100.00;94575.72;5038221;28;20060;-91
2023/06/04 08:00:51;;;;;;;12.65;5.35;;;;;;;19.91;100.00;94583.97;5036666;28;20066;-93
2023/06/04 08:03:18;;;;;;;7.57;4.97;;;;;;;20.03;100.00;94586.00;5019628;28;20109;-90
2023/06/04 08:05:44;;;;;;;8.85;5.60;;;;;;;19.69;100.00;94585.03;5015272;28;20460;-91
2023/06/04 08:08:09;;;;;;;8.18;5.18;;;;;;;19.82;100.00;94583.25;5019630;28;20025;-92
2023/06/04 08:10:35;;;;;;;9.00;5.47;;;;;;;19.62;100.00;94584.75;5036127;28;20174;-91
2023/06/04 08:13:00;;;;;;;8.98;5.55;;;;;;;19.62;100.00;94580.22;5035957;28;20036;-90
2023/06/04 08:15:25;;;;;;;11.80;5.75;;;;;;;19.76;100.00;94579.22;5019028;28;20024;-91
2023/06/04 08:17:53;;;;;;;9.65;5.70;;;;;;;20.01;100.00;94579.44;5035881;28;20031;-92
2023/06/04 08:20:19;;;;;;;8.85;5.47;;;;;;;20.00;100.00;94578.63;5035310;28;20101;-92
2023/06/04 08:22:44;;;;;;;12.23;5.63;;;;;;;19.61;100.00;94573.34;5019283;28;20124;-91
2023/06/04 08:25:10;;;;;;;9.82;5.43;;;;;;;19.60;100.00;94573.69;5019103;28;20032;-91
2023/06/04 08:27:37;;;;;;;7.32;4.88;;;;;;;19.60;100.00;94568.38;5053897;28;20029;-91
2023/06/04 08:32:47;;;;;;;10.38;5.47;;;;;;;20.15;100.00;94569.31;5058148;28;20039;-91
2023/06/04 08:35:12;;;;;;;12.02;5.53;;;;;;;20.70;100.00;94571.25;5055621;28;20028;-90
2023/06/04 08:37:38;;;;;;;7.88;4.95;;;;;;;21.03;100.00;94567.88;5054881;28;20078;-90
2023/06/04 08:40:07;;;;;;;9.98;5.32;;;;;;;21.14;100.00;94568.22;5039286;28;20032;-91
2023/06/04 08:42:45;;;;;;;17.10;5.65;;;;;;;21.08;100.00;94566.84;5039246;28;20035;-90
2023/06/04 08:45:30;;;;;;;10.95;5.18;;;;;;;21.98;100.00;94575.06;5038862;28;20051;-92
2023/06/04 08:47:56;;;;;;;7.97;4.75;;;;;;;21.83;100.00;94581.06;5055424;28;20031;-92
2023/06/04 08:50:24;;;;;;;8.13;5.00;;;;;;;22.45;100.00;94580.97;5055323;28;20028;-91
2023/06/04 08:52:55;;;;;;;9.98;4.63;;;;;;;22.39;100.00;94588.47;5055126;28;20021;-90
2023/06/04 08:55:39;;;;;;;11.95;5.28;;;;;;;22.56;100.00;94594.69;5036303;28;20523;-91
2023/06/04 08:58:08;;;;;;;8.88;5.47;;;;;;;21.81;100.00;94608.09;5055365;28;20033;-91
2023/06/04 09:00:33;;;;;;;7.68;5.07;;;;;;;22.60;100.00;94603.56;4994848;28;1284373;-91
2023/06/04 09:03:20;;;;;;;11.60;4.70;;;;;;;22.95;100.00;94599.53;5039874;28;20090;-91
2023/06/04 09:05:48;;;;;;;7.90;4.70;;;;;;;21.61;100.00;94596.38;5055555;28;20127;-90
2023/06/04 09:08:14;;;;;;;17.05;5.68;;;;;;;21.43;100.00;94585.91;5039576;28;20484;-88
2023/06/04 09:16:36;;;;;;;9.95;4.88;;;;;;;22.53;100.00;94571.34;5057805;28;20663;-91
2023/06/04 09:19:20;;;;;;;;;;;;;;;23.18;100.00;94572.28;5038456;28;20033;-88
2023/06/04 09:22:21;;;;;;;7.43;4.88;;;;;;;23.41;97.17;94580.50;5040045;28;19999;-90
2023/06/04 09:24:56;;;;;;;7.90;4.65;;;;;;;24.27;97.98;94589.00;5056409;28;20481;-89
2023/06/04 09:27:25;;;;;;;9.15;4.38;;;;;;;24.00;100.00;94591.44;5039249;28;20037;-91
2023/06/04 09:29:54;;;;;;;6.43;3.85;;;;;;;24.18;87.93;94594.53;5040086;28;20541;-91
2023/06/04 09:32:24;;;;;;;7.22;4.60;;;;;;;24.23;92.21;94593.47;5039581;28;20045;-89
2023/06/04 09:34:49;;;;;;;6.25;4.07;;;;;;;24.40;98.13;94592.31;5056055;28;20123;-91
2023/06/04 09:37:17;;;;;;;5.68;4.13;;;;;;;24.43;96.82;94591.59;5038886;28;20362;-89
2023/06/04 09:40:20;;;;;;;6.90;3.88;;;;;;;24.70;76.73;94594.44;5056140;28;20076;-90
2023/06/04 09:45:34;;;;;;;5.70;3.63;;;;;;;24.56;81.79;94600.31;5041389;28;20040;-90
2023/06/04 09:48:03;;;;;;;8.20;4.18;;;;;;;24.00;87.71;94596.78;5041824;28;20147;-91
2023/06/04 09:50:38;;;;;;;5.10;3.60;;;;;;;24.96;73.97;94601.09;5059216;28;20064;-91
2023/06/04 09:53:25;;;;;;;10.55;4.47;;;;;;;24.61;93.29;94599.25;5059727;28;20446;-91
2023/06/04 09:55:58;;;;;;;7.72;4.57;;;;;;;24.55;82.70;94601.44;5042527;28;20071;-92
2023/06/04 10:01:28;;;;;;;5.75;4.03;;;;;;;23.91;100.00;94586.28;5061550;28;20461;-87
2023/06/04 10:03:56;;;;;;;6.82;4.00;;;;;;;23.82;98.89;94585.66;5045936;28;20033;-87
2023/06/04 10:06:22;;;;;;;6.15;3.95;;;;;;;23.56;95.48;94590.44;5043479;28;20397;-83
2023/06/04 10:08:49;;;;;;;6.43;4.25;;;;;;;23.46;95.91;94585.59;5043433;28;20456;-84
2023/06/04 10:11:36;;;;;;;5.55;3.92;;;;;;;24.79;94.08;94586.22;5059850;28;20052;-86
2023/06/04 10:14:11;;;;;;;8.07;4.70;;;;;;;23.96;100.00;94583.31;5077565;28;20033;-87
2023/06/04 10:16:38;;;;;;;9.75;4.78;;;;;;;24.03;100.00;94584.63;5043216;28;20028;-84
2023/06/04 10:19:04;;;;;;;8.98;4.75;;;;;;;24.47;100.00;94583.66;5042901;28;20036;-84
2023/06/04 10:21:34;;;;;;;10.00;4.32;;;;;;;24.65;90.93;94584.03;5059642;28;20166;-87
2023/06/04 10:24:00;;;;;;;6.63;4.18;;;;;;;23.44;100.00;94580.59;5072855;28;20055;-84
2023/06/04 10:26:44;;;;;;;10.77;4.50;;;;;;;23.37;100.00;94576.97;5056592;28;20446;-86
2023/06/04 10:29:10;;;;;;;7.45;4.38;;;;;;;23.37;100.00;94576.97;5059821;28;20343;-84
2023/06/04 10:31:37;;;;;;;9.30;4.50;;;;;;;23.26;100.00;94568.66;5058230;28;20036;-90
2023/06/04 10:34:03;;;;;;;10.07;4.60;;;;;;;22.29;100.00;94579.00;5042901;28;20032;-84
2023/06/04 10:36:28;;;;;;;12.00;5.00;;;;;;;23.30;100.00;94570.31;5059277;28;20055;-84
2023/06/04 10:38:55;;;;;;;6.90;4.93;;;;;;;22.63;100.00;94572.75;5059560;28;20036;-85
2023/06/04 10:41:40;;;;;;;11.93;4.82;;;;;;;22.87;100.00;94572.63;5059348;28;20031;-84
2023/06/04 10:44:24;;;;;;;10.70;6.10;;;;;;;23.29;100.00;94566.09;5077232;28;20031;-85
2023/06/04 10:49:34;;;;;;;15.98;7.63;;;;;;;22.17;100.00;94571.06;5062222;28;20523;-87
2023/06/04 10:52:10;;;;;;;14.95;7.22;;;;;;;21.68;100.00;94569.22;5059582;28;20025;-86
2023/06/04 10:54:35;;;;;;;14.45;7.35;;;;;;;21.86;100.00;94569.72;5059460;28;20047;-87
2023/06/04 10:59:57;;;;;;;11.70;6.75;;;;;;;21.67;100.00;94567.66;5077119;28;20349;-87
2023/06/04 11:02:52;;;;;;;13.52;7.03;;;;;;;21.33;100.00;94565.03;5042481;28;20035;-86
2023/06/04 11:05:43;;;;;;;13.57;7.10;;;;;;;21.42;100.00;94562.28;5042634;28;20489;-87
2023/06/04 11:08:30;;;;;;;11.18;6.00;;;;;;;22.05;100.00;94566.50;5059154;28;20020;-86
2023/06/04 11:10:56;;;;;;;13.77;6.32;;;;;;;23.04;100.00;94557.44;5059514;28;20437;-86
2023/06/04 11:13:28;;;;;;;11.50;6.53;;;;;;;22.79;100.00;94562.88;5058802;28;20031;-86
2023/06/04 11:15:53;;;;;;;12.85;7.68;;;;;;;22.54;100.00;94554.19;5059178;28;20054;-87
2023/06/04 11:18:21;;;;;;;11.70;6.85;;;;;;;22.05;100.00;94558.50;5042463;28;20047;-92
2023/06/04 11:20:48;;;;;;;20.63;9.90;;;;;;;22.19;100.00;94555.50;5042437;28;20051;-93
2023/06/04 11:23:15;;;;;;;17.17;9.88;;;;;;;22.45;100.00;94554.28;5042481;28;20025;-84
2023/06/04 11:25:43;;;;;;;18.20;8.77;;;;;;;22.88;100.00;94547.50;5056108;28;20116;-84
2023/06/04 11:28:15;;;;;;;16.90;7.90;;;;;;;23.19;100.00;94545.19;5022476;28;20385;-87
2023/06/04 11:30:40;;;;;;;12.50;7.07;;;;;;;23.47;100.00;94543.59;5022481;28;20025;-84
2023/06/04 11:33:09;;;;;;;17.75;9.80;;;;;;;22.15;100.00;94541.25;5022556;28;20082;-84
2023/06/04 11:35:41;;;;;;;17.40;10.95;;;;;;;21.97;100.00;94544.16;5056080;28;20513;-87
2023/06/04 11:38:07;;;;;;;16.48;9.07;;;;;;;21.40;100.00;94538.59;5039054;28;20051;-86
2023/06/04 11:40:32;;;;;;;14.77;8.65;;;;;;;22.38;100.00;94541.53;5038357;28;20021;-86
2023/06/04 11:48:45;;;;;;;22.08;10.27;;;;;;;24.18;100.00;94529.53;5056033;28;20112;-86
2023/06/04 11:51:29;;;;;;;11.98;7.88;;;;;;;24.57;100.00;94524.94;5056068;28;20079;-84
2023/06/04 11:53:55;;;;;;;11.65;7.03;;;;;;;24.09;100.00;94525.13;5038276;28;20017;-84
2023/06/04 11:56:22;;;;;;;23.98;10.60;;;;;;;22.59;100.00;94519.25;5037819;28;20027;-85
2023/06/04 11:58:48;;;;;;;16.13;10.73;;;;;;;23.52;100.00;94530.72;5021666;28;20082;-84
2023/06/04 12:01:13;;;;;;;20.73;11.50;;;;;;;23.24;100.00;94515.56;5054530;28;20119;-84
2023/06/04 12:03:40;;;;;;;15.68;9.88;;;;;;;23.79;100.00;94517.59;5021606;28;20028;-84
2023/06/04 12:06:24;;;;;;;19.55;10.73;;;;;;;23.80;100.00;94524.47;5021388;28;20340;-84
2023/06/04 12:08:49;;;;;;;;;;;;;;;23.16;100.00;94519.16;5038518;28;20025;-84
2023/06/04 12:14:21;;;;;;;15.65;9.02;;;;;;;23.20;100.00;94506.66;5040872;28;20140;-86
2023/06/04 12:16:59;;;;;;;19.48;8.95;;;;;;;23.50;100.00;94502.81;5038235;28;20029;-87
2023/06/04 12:19:26;;;;;;;13.43;7.78;;;;;;;23.61;100.00;94505.72;5038854;28;20021;-87
2023/06/04 12:22:05;;;;;;;14.68;8.05;;;;;;;24.00;100.00;94501.22;5048697;28;20039;-85
2023/06/04 12:24:36;;;;;;;13.30;8.30;;;;;;;24.11;100.00;94500.69;5041331;28;20028;-84
2023/06/04 12:27:25;;;;;;;19.73;9.40;;;;;;;23.05;100.00;94496.75;5057994;28;20319;-85
2023/06/04 12:33:10;;;;;;;17.30;8.02;;;;;;;23.80;100.00;94503.06;5060298;28;20032;-84
2023/06/04 12:35:54;;;;;;;13.10;7.05;;;;;;;24.76;100.00;94506.53;5041255;28;20135;-86
2023/06/04 12:38:20;;;;;;;19.85;8.98;;;;;;;24.18;100.00;94508.09;5075797;28;20025;-85
2023/06/04 12:40:45;;;;;;;13.02;8.68;;;;;;;24.43;100.00;94496.00;5041211;28;20028;-85
2023/06/04 12:43:11;;;;;;;16.80;7.72;;;;;;;24.63;100.00;94503.25;5041294;28;20115;-85
2023/06/04 12:45:55;;;;;;;16.65;9.05;;;;;;;25.23;100.00;94494.72;5020825;28;20033;-87
2023/06/04 12:48:20;;;;;;;13.20;8.02;;;;;;;24.81;100.00;94495.53;5037734;28;20114;-84
2023/06/04 12:51:04;;;;;;;11.18;7.78;;;;;;;25.86;99.48;94493.78;5039186;28;20091;-84
2023/06/04 12:53:30;;;;;;;13.82;7.68;;;;;;;24.85;100.00;94499.09;5037853;28;20158;-84
2023/06/04 12:55:55;;;;;;;13.35;8.40;;;;;;;25.47;100.00;94495.50;5058635;28;20115;-84
2023/06/04 12:58:21;;;;;;;14.27;7.30;;;;;;;25.52;100.00;94483.72;5041391;28;20454;-84